Sunday, February 14, 2016
01:53 UTC
  |  Log In   |  Register Free
Airport Search:

Talladega Municipal Airport
(KASN)

Talladega Municipal Airport Diagram
No Airport Diagram Available

FAA data valid effective Feb 4 2016 - Mar 31 2016 (unless otherwise noted).

 
 
 
 
 
 
 
 
 
 
 
 
 
 
Current Aviation Weather for KASN

Weather Summary


The most recent METAR observation for ASN was updated at: 12:53 UTC
METAR for KASN is not available. Closest METAR is for KANB
KASN  (most recent observation was updatred at 14:01 UTC)
140135Z AUTO 01006KT 10SM CLR 02/M14 A3042 RMK AO2 T00201140

KANB  (9.7 nm SW)   (most recent observation was updated at 14:00 UTC)
140053Z AUTO 33006KT 10SM CLR 03/M14 A3042 RMK AO2 SLP312 T00331144

KGAD  (24.3 nm SE)   (most recent observation was updated at 14:00 UTC)
140056Z AUTO 33006KT 10SM CLR 01/M13 A3044 RMK AO2 SLP329 T00061128 FZRANO

TAF for KASN is not available.
KASN
132335Z 1400/1424 35005KT P6SM SKC FM141500 13007KT P6SM BKN250

KANB  (9.7 nm SW)   (most recent observation was updatred at 13:23 UTC)
132335Z 1400/1424 35005KT P6SM SKC FM141500 13007KT P6SM BKN250


KBHM  (35.1 nm NE)   (most recent observation was updatred at 13:23 UTC)
132335Z 1400/1424 35005KT P6SM SKC FM141500 13007KT P6SM BKN250
GlobalAir.com is loading additional information.
 Current Weather at ASN
38.0 F° (3.3 C°)

North winds at 5.8 mph
Pressure:
30.42 in
Humidity:
29%
Wind:
North at 5.8 mph
Dew Point:
8.6 F° (-13.0 C°)
Visibility:
10.00 mi
ASN NOAA Radar




Find All Airport Services Find A Hotel Find A Rental Car Find A Golf Course Find A Restaurant $100 Hamburger



Airport Weather Forecast for KASN

Translated METAR for KASN (0135 UTC)
METAR:
KASN 140135Z AUTO 01006KT 10SM CLR 02/M14 A3042 RMK AO2 T00201140
Conditions at:
KASN (Talladega Muni, AL) observed 0135 UTC 13 February 2016
Temperature:
2°C (35.6°F)
Dewpoint:
-14°C (6.8°F) [RH = 29.5]
Pressure:
30.42 inches Hg (1030.1 mb)
Winds:
from the N (010 degrees) at 6.9 mph (6 knots: 3.1 m/s)
Visibility:
10 mile(s)
Ceiling:
at least 12,000 feet AGL
Clouds:
Clear below 12,000 feet AGL
Remarks:
site is un-manned
site is automated and HAS a precipitation sensor

Translated TAF for KASN (Talladega Muni, AL) (2335 UTC)
TAF text:
KASN 132335Z 1400/1424 35005KT P6SM SKC
Forecast period:
Sunday Feb 14 2016 00:00 UTC - Sunday Feb 14 2016 24:00 UTC
Forecast type:
FROM: standard forecast or significant change
Winds:
from the N (350 degrees) at 5.8 mph (5 knots: 2.6 m/s)
Visibility:
6 or more mile(s) (9.7+ km)
Ceiling:
at least 12,000 feet AGL
Clouds:
Clear Skies
Weather:
no significant weather observed at this time
TAF text:
FM141500 13007KT P6SM BKN250
Forecast period:
Sunday Feb 14 2016 15:00 UTC - Sunday Feb 14 2016 24:00 UTC
Forecast type:
FROM: standard forecast or significant change
Winds:
from the SE (130 degrees) at 8.1 mph (7 knots: 3.6 m/s)
Visibility:
6 or more mile(s) (9.7+ km)
Ceiling:
25,000 feet AGL
Clouds:
Broken Cloud Cover at 25,000 feet AGL
Weather:
no significant weather observed at this time
FBO's on the Field
FBO Company Facility Photos Services Transportation Aviation Fuel Prices: Prices include tax
Catering Weather Repair Courtesy Rental Type 100LL JetA JetA+ MOGAS 8087
 
Talladega Municipal

This FBO has not yet been rated
FS:Phillips 66
Last Updated: Jan-29
Login to update fuel prices
SS:
Contact Talladega MunicipalMore FBO Information
 
Add another FBO Facility Photos Catering Weather Repair Courtesy Rental Type 100LL JetA JetA+ MOGAS 8087
Services Transportation Aviation Fuel Prices: Prices include tax


model-print
model-print
model-print
model-print